createdAt,value
2024-02-21T00:01:16.407Z,7.25
2024-02-21T00:03:45.043Z,7.00
2024-02-21T00:06:13.555Z,7.22
2024-02-21T00:08:42.262Z,6.47
2024-02-21T00:11:10.986Z,6.80
2024-02-21T00:13:39.552Z,6.60
2024-02-21T00:16:09.665Z,6.50
2024-02-21T00:18:38.174Z,6.78
2024-02-21T00:21:06.732Z,5.85
2024-02-21T00:23:35.336Z,7.30
2024-02-21T00:26:03.986Z,6.22
2024-02-21T00:28:32.558Z,6.75
2024-02-21T00:31:01.089Z,6.70
2024-02-21T00:33:31.039Z,6.38
2024-02-21T00:35:59.699Z,5.78
2024-02-21T00:38:28.350Z,6.47
2024-02-21T00:40:56.897Z,7.68
2024-02-21T00:43:25.847Z,6.70
2024-02-21T00:45:54.435Z,6.57
2024-02-21T00:48:23.062Z,5.68
2024-02-21T00:50:53.042Z,5.45
2024-02-21T00:53:21.618Z,5.63
2024-02-21T00:55:50.170Z,6.32
2024-02-21T00:58:18.720Z,6.10
2024-02-21T01:00:47.421Z,5.38
2024-02-21T01:03:16.339Z,5.40
2024-02-21T01:05:44.850Z,4.97
2024-02-21T01:08:14.751Z,5.88
2024-02-21T01:10:43.271Z,6.15
2024-02-21T01:13:11.782Z,6.70
2024-02-21T01:15:40.409Z,5.85
2024-02-21T01:18:09.038Z,6.72
2024-02-21T01:20:37.579Z,5.40
2024-02-21T01:23:06.145Z,5.15
2024-02-21T01:25:36.110Z,5.15
2024-02-21T01:28:05.049Z,5.85
2024-02-21T01:30:33.809Z,6.30
2024-02-21T01:33:02.391Z,6.25
2024-02-21T01:35:31.023Z,6.07
2024-02-21T01:37:59.604Z,5.70
2024-02-21T01:40:28.232Z,5.88
2024-02-21T01:42:58.326Z,5.75
2024-02-21T01:45:26.862Z,5.93
2024-02-21T01:47:55.412Z,6.13
2024-02-21T01:50:25.637Z,5.30
2024-02-21T01:52:54.473Z,5.47
2024-02-21T01:55:23.125Z,6.00
2024-02-21T01:57:51.732Z,5.47
2024-02-21T02:00:22.616Z,4.70
2024-02-21T02:02:52.254Z,5.50
2024-02-21T02:05:22.295Z,5.00
2024-02-21T02:07:50.940Z,5.15
2024-02-21T02:10:19.639Z,5.10
2024-02-21T02:12:48.161Z,5.40
2024-02-21T02:15:16.668Z,5.30
2024-02-21T02:17:46.605Z,4.85
2024-02-21T02:20:15.821Z,5.45
2024-02-21T02:22:46.672Z,4.93
2024-02-21T02:25:16.708Z,5.10
2024-02-21T02:27:46.381Z,4.78
2024-02-21T02:30:15.268Z,5.00
2024-02-21T02:32:47.056Z,5.53
2024-02-21T02:35:15.999Z,5.40
2024-02-21T02:37:50.662Z,5.13
2024-02-21T02:40:20.954Z,5.75
2024-02-21T02:42:50.140Z,5.70
2024-02-21T02:45:18.873Z,5.72
2024-02-21T02:47:48.261Z,5.15
2024-02-21T02:50:17.037Z,5.53
2024-02-21T02:52:45.553Z,6.38
2024-02-21T02:55:14.487Z,5.20
2024-02-21T02:57:44.661Z,5.68
2024-02-21T03:00:14.419Z,5.97
2024-02-21T03:02:44.546Z,5.70
2024-02-21T03:05:16.084Z,6.32
2024-02-21T03:07:45.544Z,6.63
2024-02-21T03:10:15.349Z,5.93
2024-02-21T03:12:45.421Z,7.13
2024-02-21T03:15:14.950Z,6.07
2024-02-21T03:17:43.871Z,5.70
2024-02-21T03:20:13.877Z,5.68
2024-02-21T03:22:43.044Z,5.38
2024-02-21T03:25:11.883Z,6.05
2024-02-21T03:27:40.517Z,7.13
2024-02-21T03:30:11.524Z,6.18
2024-02-21T03:32:40.419Z,6.10
2024-02-21T03:35:09.490Z,6.70
2024-02-21T03:37:38.075Z,7.22
2024-02-21T03:40:10.220Z,6.53
2024-02-21T03:42:39.288Z,8.05
2024-02-21T03:45:08.929Z,7.38
2024-02-21T03:47:39.417Z,7.32
2024-02-21T03:50:09.060Z,7.70
2024-02-21T03:52:37.715Z,6.70
2024-02-21T03:55:06.707Z,7.70
2024-02-21T03:57:35.228Z,7.65
2024-02-21T04:00:04.770Z,7.22
2024-02-21T04:02:33.334Z,7.63
2024-02-21T04:05:03.266Z,7.78
2024-02-21T04:07:31.938Z,7.40
2024-02-21T04:10:09.127Z,7.70
2024-02-21T04:12:39.400Z,7.20
2024-02-21T04:15:08.564Z,7.50
2024-02-21T04:17:37.075Z,7.05
2024-02-21T04:20:09.938Z,7.50
2024-02-21T04:22:38.734Z,7.10
2024-02-21T04:25:08.321Z,7.90
2024-02-21T04:27:36.803Z,6.43
2024-02-21T04:30:06.087Z,7.13
2024-02-21T04:32:35.123Z,7.93
2024-02-21T04:35:03.850Z,8.35
2024-02-21T04:37:33.805Z,7.05
2024-02-21T04:40:03.124Z,6.80
2024-02-21T04:42:31.660Z,7.07
2024-02-21T04:45:00.243Z,7.18
2024-02-21T04:47:29.592Z,7.85
2024-02-21T04:49:58.119Z,6.75
2024-02-21T04:52:26.610Z,7.07
2024-02-21T04:54:56.929Z,6.68
2024-02-21T04:57:26.400Z,6.68
2024-02-21T04:59:54.874Z,7.43
2024-02-21T05:02:25.416Z,6.38
2024-02-21T05:04:54.974Z,6.93
2024-02-21T05:07:23.901Z,7.10
2024-02-21T05:09:52.362Z,6.70
2024-02-21T05:12:22.262Z,6.85
2024-02-21T05:14:50.783Z,7.75
2024-02-21T05:17:19.453Z,7.30
2024-02-21T05:19:48.077Z,7.18
2024-02-21T05:22:16.636Z,8.25
2024-02-21T05:24:45.192Z,8.00
2024-02-21T05:27:13.683Z,8.00
2024-02-21T05:29:43.578Z,8.50
2024-02-21T05:32:12.158Z,9.88
2024-02-21T05:34:41.045Z,8.35
2024-02-21T05:37:09.893Z,7.40
2024-02-21T05:39:38.350Z,8.10
2024-02-21T05:42:07.194Z,8.35
2024-02-21T05:44:35.713Z,7.82
2024-02-21T05:47:06.331Z,8.07
2024-02-21T05:49:34.876Z,7.72
2024-02-21T05:52:03.539Z,7.55
2024-02-21T05:54:32.013Z,6.82
2024-02-21T05:57:00.554Z,8.20
2024-02-21T05:59:29.061Z,7.50
2024-02-21T06:01:59.050Z,6.88
2024-02-21T06:04:29.222Z,7.85
2024-02-21T06:06:57.732Z,7.60
2024-02-21T06:09:26.231Z,7.97
2024-02-21T06:11:54.787Z,7.75
2024-02-21T06:14:23.669Z,8.52
2024-02-21T06:16:52.214Z,8.60
2024-02-21T06:19:20.908Z,8.40
2024-02-21T06:21:50.905Z,8.25
2024-02-21T06:24:19.367Z,8.52
2024-02-21T06:26:47.866Z,7.88
2024-02-21T06:29:16.402Z,7.78
2024-02-21T06:31:44.945Z,9.00
2024-02-21T06:34:13.595Z,8.15
2024-02-21T06:36:42.154Z,8.25
2024-02-21T06:39:12.568Z,8.38
2024-02-21T06:41:41.613Z,7.82
2024-02-21T06:44:10.182Z,7.43
2024-02-21T06:46:38.743Z,8.88
2024-02-21T06:49:07.388Z,8.50
2024-02-21T06:51:36.289Z,8.65
2024-02-21T06:54:04.814Z,9.23
2024-02-21T06:56:34.749Z,8.63
2024-02-21T06:59:04.508Z,9.18
2024-02-21T07:01:33.237Z,8.75
2024-02-21T07:04:01.988Z,9.73
2024-02-21T07:06:33.860Z,8.63
2024-02-21T07:09:03.708Z,8.38
2024-02-21T07:11:32.337Z,8.45
2024-02-21T07:14:02.336Z,8.27
2024-02-21T07:16:30.937Z,8.23
2024-02-21T07:18:59.570Z,8.38
2024-02-21T07:21:28.087Z,8.73
2024-02-21T07:23:56.519Z,8.60
2024-02-21T07:26:25.016Z,8.13
2024-02-21T07:28:53.568Z,8.50
2024-02-21T07:31:23.493Z,8.25
2024-02-21T07:33:52.064Z,9.07
2024-02-21T07:36:30.421Z,8.65
2024-02-21T07:38:59.016Z,8.25
2024-02-21T07:41:27.662Z,8.32
2024-02-21T07:43:56.220Z,8.15
2024-02-21T07:46:26.258Z,8.07
2024-02-21T07:48:54.842Z,7.15
2024-02-21T07:51:23.317Z,8.90
2024-02-21T07:53:52.003Z,8.80
2024-02-21T07:56:20.467Z,8.15
2024-02-21T07:58:49.003Z,7.35
2024-02-21T08:01:20.844Z,7.97
2024-02-21T08:03:51.300Z,6.47
2024-02-21T08:06:19.865Z,6.30
2024-02-21T08:08:48.392Z,7.18
2024-02-21T08:11:17.095Z,6.80
2024-02-21T08:13:45.729Z,7.07
2024-02-21T08:16:14.265Z,6.72
2024-02-21T08:18:45.252Z,7.38
2024-02-21T08:21:15.301Z,7.22
2024-02-21T08:23:43.746Z,6.53
2024-02-21T08:26:12.819Z,7.13
2024-02-21T08:28:41.424Z,7.25
2024-02-21T08:31:09.910Z,7.68
2024-02-21T08:33:38.523Z,7.10
2024-02-21T08:36:09.034Z,8.23
2024-02-21T08:38:38.869Z,7.22
2024-02-21T08:41:07.719Z,7.50
2024-02-21T08:43:37.126Z,7.88
2024-02-21T08:46:07.407Z,7.95
2024-02-21T08:48:36.735Z,8.23
2024-02-21T08:51:06.687Z,8.63
2024-02-21T08:53:35.248Z,7.45
2024-02-21T08:56:05.761Z,8.27
2024-02-21T08:58:34.405Z,8.25
2024-02-21T09:01:02.970Z,8.30
2024-02-21T09:03:32.852Z,9.05
2024-02-21T09:06:01.768Z,8.93
2024-02-21T09:08:30.572Z,9.35
2024-02-21T09:10:59.148Z,9.48
2024-02-21T09:13:29.147Z,10.98
2024-02-21T09:15:57.864Z,10.30
2024-02-21T09:18:26.483Z,9.45
2024-02-21T09:20:55.007Z,9.07
2024-02-21T09:23:26.451Z,10.57
2024-02-21T09:25:56.561Z,8.93
2024-02-21T09:28:25.212Z,9.18
2024-02-21T09:30:55.192Z,10.05
2024-02-21T09:33:30.795Z,9.48
2024-02-21T09:36:02.230Z,9.77
2024-02-21T09:38:30.760Z,8.95
2024-02-21T09:41:02.845Z,8.65
2024-02-21T09:43:31.515Z,9.32
2024-02-21T09:46:02.436Z,9.52
2024-02-21T09:48:45.963Z,10.35
2024-02-21T09:51:16.564Z,9.32
2024-02-21T09:53:55.035Z,9.35
2024-02-21T09:56:30.973Z,8.98
2024-02-21T09:59:00.868Z,12.57
2024-02-21T10:01:34.924Z,10.95
2024-02-21T10:04:06.120Z,11.00
2024-02-21T10:06:35.058Z,9.35
2024-02-21T10:09:03.725Z,9.05
2024-02-21T10:11:32.569Z,9.30
2024-02-21T10:14:07.734Z,8.95
2024-02-21T10:16:38.832Z,9.10
2024-02-21T10:19:07.559Z,8.93
2024-02-21T10:21:36.173Z,10.18
2024-02-21T10:24:05.268Z,7.82
2024-02-21T10:26:33.733Z,9.43
2024-02-21T10:29:03.873Z,9.52
2024-02-21T10:31:32.466Z,8.50
2024-02-21T10:34:04.844Z,9.02
2024-02-21T10:36:33.650Z,9.05
2024-02-21T10:39:02.187Z,9.40
2024-02-21T10:41:32.304Z,9.13
2024-02-21T10:44:02.622Z,9.50
2024-02-21T10:46:33.468Z,9.32
2024-02-21T10:49:12.469Z,10.68
2024-02-21T10:51:45.571Z,9.18
2024-02-21T10:54:32.404Z,11.18
2024-02-21T10:57:04.920Z,8.95
2024-02-21T10:59:34.615Z,9.63
2024-02-21T11:02:04.175Z,15.10
2024-02-21T11:04:37.577Z,11.50
2024-02-21T11:07:10.944Z,11.27
2024-02-21T11:09:40.291Z,9.65
2024-02-21T11:12:10.019Z,8.90
2024-02-21T11:14:42.917Z,9.43
2024-02-21T11:17:18.677Z,8.65
2024-02-21T11:19:49.434Z,8.88
2024-02-21T11:22:19.227Z,7.80
2024-02-21T11:24:48.507Z,7.90
2024-02-21T11:27:18.067Z,8.65
2024-02-21T11:29:47.115Z,7.32
2024-02-21T11:32:17.472Z,7.93
2024-02-21T11:34:57.476Z,9.15
2024-02-21T11:37:28.768Z,7.97
2024-02-21T11:39:57.494Z,7.28
2024-02-21T11:42:27.512Z,6.47
2024-02-21T11:44:58.122Z,7.10
2024-02-21T11:47:27.513Z,6.85
2024-02-21T11:49:57.589Z,6.65
2024-02-21T11:52:29.198Z,6.93
2024-02-21T11:55:05.753Z,6.95
2024-02-21T11:57:36.617Z,7.78
2024-02-21T12:00:15.228Z,8.05
2024-02-21T12:02:44.197Z,6.90
2024-02-21T12:05:14.449Z,6.93
2024-02-21T12:07:43.528Z,6.10
2024-02-21T12:10:12.953Z,6.28
2024-02-21T12:12:42.102Z,6.10
2024-02-21T12:15:10.964Z,5.72
2024-02-21T12:17:40.103Z,6.22
2024-02-21T12:20:10.644Z,6.05
2024-02-21T12:22:41.434Z,6.30
2024-02-21T12:25:19.123Z,6.35
2024-02-21T12:27:47.739Z,5.82
2024-02-21T12:30:16.591Z,6.65
2024-02-21T12:32:45.284Z,7.07
2024-02-21T12:35:14.385Z,7.55
2024-02-21T12:37:44.414Z,6.50
2024-02-21T12:40:14.721Z,5.35
2024-02-21T12:42:44.137Z,5.40
2024-02-21T12:45:13.148Z,5.15
2024-02-21T12:47:41.925Z,5.10
2024-02-21T12:50:11.213Z,9.52
2024-02-21T12:52:39.987Z,7.25
2024-02-21T12:55:12.334Z,5.22
2024-02-21T12:57:41.173Z,5.72
2024-02-21T13:00:12.554Z,5.32
2024-02-21T13:02:41.493Z,4.50
2024-02-21T13:05:10.598Z,4.38
2024-02-21T13:07:39.385Z,4.57
2024-02-21T13:10:10.569Z,4.68
2024-02-21T13:12:39.365Z,4.50
2024-02-21T13:15:11.075Z,5.32
2024-02-21T13:17:39.709Z,5.88
2024-02-21T13:20:09.672Z,7.50
2024-02-21T13:22:38.442Z,6.88
2024-02-21T13:25:08.506Z,5.85
2024-02-21T13:27:38.601Z,4.88
2024-02-21T13:30:10.069Z,4.85
2024-02-21T13:32:39.207Z,6.15
2024-02-21T13:35:08.576Z,6.82
2024-02-21T13:37:38.274Z,5.70
2024-02-21T13:40:08.685Z,6.00
2024-02-21T13:42:39.016Z,5.28
2024-02-21T13:45:08.537Z,5.45
2024-02-21T13:47:39.756Z,6.88
2024-02-21T13:50:12.100Z,6.38
2024-02-21T13:52:40.715Z,5.40
2024-02-21T13:55:10.787Z,5.50
2024-02-21T13:57:40.870Z,5.85
2024-02-21T14:00:11.989Z,4.95
2024-02-21T14:02:40.909Z,5.15
2024-02-21T14:05:10.319Z,5.47
2024-02-21T14:07:40.787Z,5.00
2024-02-21T14:10:11.757Z,5.88
2024-02-21T14:12:41.792Z,5.93
2024-02-21T14:15:11.207Z,5.65
2024-02-21T14:17:40.391Z,5.55
2024-02-21T14:20:10.961Z,5.78
2024-02-21T14:22:40.214Z,5.30
2024-02-21T14:25:09.649Z,4.75
2024-02-21T14:27:38.225Z,4.60
2024-02-21T14:30:12.243Z,5.40
2024-02-21T14:32:45.794Z,4.95
2024-02-21T14:35:14.835Z,5.00
2024-02-21T14:37:43.515Z,4.70
2024-02-21T14:40:13.444Z,4.97
2024-02-21T14:42:42.021Z,4.68
2024-02-21T14:45:12.760Z,5.30
2024-02-21T14:47:41.486Z,4.78
2024-02-21T14:50:10.727Z,5.03
2024-02-21T14:52:39.548Z,5.57
2024-02-21T14:55:09.512Z,4.82
2024-02-21T14:57:39.177Z,4.80
2024-02-21T15:00:10.923Z,5.05
2024-02-21T15:02:41.187Z,4.72
2024-02-21T15:05:10.470Z,5.78
2024-02-21T15:07:39.099Z,4.72
2024-02-21T15:10:09.097Z,5.57
2024-02-21T15:12:37.696Z,4.40
2024-02-21T15:15:07.218Z,4.75
2024-02-21T15:17:35.886Z,4.97
2024-02-21T15:20:08.855Z,5.05
2024-02-21T15:22:37.938Z,4.70
2024-02-21T15:25:07.461Z,5.38
2024-02-21T15:27:40.339Z,5.70
2024-02-21T15:30:10.498Z,5.10
2024-02-21T15:32:39.317Z,5.10
2024-02-21T15:35:09.597Z,4.18
2024-02-21T15:37:38.497Z,5.20
2024-02-21T15:40:09.419Z,4.78
2024-02-21T15:42:39.282Z,4.60
2024-02-21T15:45:09.309Z,4.80
2024-02-21T15:47:38.063Z,5.65
2024-02-21T15:50:08.632Z,5.18
2024-02-21T15:52:38.773Z,5.43
2024-02-21T15:55:11.999Z,5.20
2024-02-21T15:57:40.999Z,5.30
2024-02-21T16:00:13.349Z,5.18
2024-02-21T16:02:43.196Z,5.40
2024-02-21T16:05:12.718Z,5.68
2024-02-21T16:07:43.933Z,5.20
2024-02-21T16:10:12.522Z,6.13
2024-02-21T16:12:42.446Z,5.78
2024-02-21T16:15:12.843Z,5.55
2024-02-21T16:17:41.786Z,7.15
2024-02-21T16:20:11.738Z,9.82
2024-02-21T16:22:40.928Z,6.65
2024-02-21T16:25:11.420Z,6.55
2024-02-21T16:27:41.927Z,8.27
2024-02-21T16:30:11.005Z,8.45
2024-02-21T16:32:43.928Z,6.75
2024-02-21T16:35:13.276Z,6.55
2024-02-21T16:37:42.234Z,6.60
2024-02-21T16:40:13.553Z,6.97
2024-02-21T16:42:42.081Z,7.30
2024-02-21T16:45:11.177Z,6.63
2024-02-21T16:47:39.747Z,6.43
2024-02-21T16:50:09.354Z,6.47
2024-02-21T16:52:38.175Z,6.38
2024-02-21T16:55:08.686Z,6.30
2024-02-21T16:57:39.822Z,5.95
2024-02-21T17:00:12.744Z,6.38
2024-02-21T17:02:48.437Z,7.47
2024-02-21T17:05:26.336Z,7.40
2024-02-21T17:07:55.738Z,5.60
2024-02-21T17:10:24.716Z,5.20
2024-02-21T17:12:55.084Z,5.82
2024-02-21T17:15:23.661Z,5.57
2024-02-21T17:17:52.367Z,6.25
2024-02-21T17:20:21.071Z,5.25
2024-02-21T17:22:49.651Z,5.47
2024-02-21T17:25:18.434Z,7.05
2024-02-21T17:27:47.010Z,5.25
2024-02-21T17:30:17.254Z,8.70
2024-02-21T17:32:46.311Z,6.00
2024-02-21T17:35:16.531Z,5.80
2024-02-21T17:37:45.168Z,7.03
2024-02-21T17:40:14.598Z,6.57
2024-02-21T17:42:43.086Z,7.30
2024-02-21T17:45:12.024Z,7.72
2024-02-21T17:47:41.976Z,12.60
2024-02-21T17:50:10.835Z,9.23
2024-02-21T17:52:39.506Z,6.30
2024-02-21T17:55:08.845Z,6.60
2024-02-21T17:57:37.455Z,9.48
2024-02-21T18:00:08.478Z,6.50
2024-02-21T18:02:37.552Z,7.43
2024-02-21T18:05:08.137Z,10.38
2024-02-21T18:07:37.520Z,6.28
2024-02-21T18:10:06.695Z,12.00
2024-02-21T18:12:35.507Z,8.80
2024-02-21T18:15:04.164Z,7.85
2024-02-21T18:17:34.219Z,8.40
2024-02-21T18:20:05.293Z,8.63
2024-02-21T18:22:35.907Z,8.57
2024-02-21T18:25:04.846Z,8.20
2024-02-21T18:27:33.616Z,8.93
2024-02-21T18:30:03.430Z,10.10
2024-02-21T18:32:32.292Z,7.82
2024-02-21T18:35:01.850Z,8.57
2024-02-21T18:37:31.148Z,7.40
2024-02-21T18:40:01.144Z,6.97
2024-02-21T18:42:29.657Z,8.68
2024-02-21T18:44:58.234Z,7.13
2024-02-21T18:47:26.840Z,7.30
2024-02-21T18:49:55.477Z,8.23
2024-02-21T18:52:24.098Z,10.23
2024-02-21T18:54:52.656Z,13.57
2024-02-21T18:57:22.583Z,11.35
2024-02-21T18:59:51.081Z,8.10
2024-02-21T19:02:19.679Z,7.50
2024-02-21T19:04:48.428Z,9.32
2024-02-21T19:07:17.617Z,9.18
2024-02-21T19:09:46.161Z,8.45
2024-02-21T19:12:15.064Z,7.15
2024-02-21T19:14:44.968Z,12.57
2024-02-21T19:17:13.492Z,8.05
2024-02-21T19:19:43.524Z,11.75
2024-02-21T19:22:12.134Z,8.13
2024-02-21T19:24:41.233Z,6.72
2024-02-21T19:27:10.057Z,8.65
2024-02-21T19:29:39.874Z,7.97
2024-02-21T19:32:09.876Z,8.95
2024-02-21T19:34:41.458Z,9.55
2024-02-21T19:37:11.162Z,8.45
2024-02-21T19:39:39.690Z,6.65
2024-02-21T19:42:08.362Z,6.07
2024-02-21T19:44:36.885Z,5.50
2024-02-21T19:47:06.459Z,6.50
2024-02-21T19:49:36.405Z,5.68
2024-02-21T19:52:05.539Z,6.43
2024-02-21T19:54:34.012Z,6.15
2024-02-21T19:57:03.805Z,6.82
2024-02-21T19:59:34.103Z,6.53
2024-02-21T20:02:02.754Z,6.70
2024-02-21T20:04:31.494Z,9.43
2024-02-21T20:07:01.615Z,7.03
2024-02-21T20:09:30.092Z,6.82
2024-02-21T20:11:59.894Z,7.50
2024-02-21T20:14:28.531Z,7.00
2024-02-21T20:16:57.140Z,7.45
2024-02-21T20:19:25.875Z,16.73
2024-02-21T20:21:54.899Z,11.00
2024-02-21T20:24:35.126Z,9.32
2024-02-21T20:27:08.434Z,7.90
2024-02-21T20:29:36.965Z,7.03
2024-02-21T20:32:06.145Z,6.88
2024-02-21T20:34:34.834Z,6.47
2024-02-21T20:37:07.158Z,7.35
2024-02-21T20:39:37.998Z,7.10
2024-02-21T20:42:06.969Z,7.20
2024-02-21T20:44:35.657Z,6.82
2024-02-21T20:47:05.211Z,6.60
2024-02-21T20:49:33.823Z,6.57
2024-02-21T20:52:02.503Z,7.10
2024-02-21T20:54:32.887Z,6.43
2024-02-21T20:57:03.373Z,5.47
2024-02-21T20:59:31.822Z,5.82
2024-02-21T21:02:03.531Z,5.30
2024-02-21T21:04:33.487Z,5.38
2024-02-21T21:07:02.937Z,5.40
2024-02-21T21:09:31.509Z,13.77
2024-02-21T21:12:00.120Z,8.63
2024-02-21T21:14:30.117Z,6.50
2024-02-21T21:16:58.761Z,16.42
2024-02-21T21:19:29.157Z,5.95
2024-02-21T21:21:59.986Z,5.85
2024-02-21T21:24:28.662Z,5.32
2024-02-21T21:26:57.186Z,5.75
2024-02-21T21:29:25.671Z,5.18
2024-02-21T21:31:55.610Z,5.00
2024-02-21T21:34:24.311Z,4.90
2024-02-21T21:36:52.865Z,4.82
2024-02-21T21:39:21.990Z,4.85
2024-02-21T21:41:50.575Z,5.13
2024-02-21T21:44:19.187Z,4.63
2024-02-21T21:46:48.948Z,6.07
2024-02-21T21:49:18.973Z,6.97
2024-02-21T21:51:47.512Z,4.90
2024-02-21T21:54:16.054Z,5.68
2024-02-21T21:56:44.585Z,4.93
2024-02-21T21:59:13.354Z,4.68
2024-02-21T22:01:42.058Z,4.95
2024-02-21T22:04:11.375Z,5.00
2024-02-21T22:06:41.545Z,4.80
2024-02-21T22:09:10.610Z,5.50
2024-02-21T22:11:40.012Z,5.20
2024-02-21T22:14:09.882Z,4.93
2024-02-21T22:16:38.726Z,4.53
2024-02-21T22:19:07.345Z,4.95
2024-02-21T22:21:35.882Z,4.93
2024-02-21T22:24:06.247Z,5.72
2024-02-21T22:26:34.813Z,4.13
2024-02-21T22:29:03.474Z,4.45
2024-02-21T22:31:32.339Z,4.43
2024-02-21T22:34:01.483Z,4.40
2024-02-21T22:36:31.094Z,4.90
2024-02-21T22:39:02.347Z,4.30
2024-02-21T22:41:34.322Z,6.75
2024-02-21T22:44:04.568Z,4.50
2024-02-21T22:46:33.745Z,5.60
2024-02-21T22:49:03.180Z,7.28
2024-02-21T22:51:32.912Z,4.70
2024-02-21T22:54:02.045Z,5.00
2024-02-21T22:56:30.817Z,4.53
2024-02-21T22:59:00.818Z,4.75
2024-02-21T23:01:29.366Z,4.93
2024-02-21T23:03:58.423Z,5.13
2024-02-21T23:06:27.383Z,4.50
2024-02-21T23:08:56.050Z,4.32
2024-02-21T23:11:24.635Z,4.28
2024-02-21T23:13:53.191Z,4.50
2024-02-21T23:16:23.098Z,4.88
2024-02-21T23:18:52.641Z,5.30
2024-02-21T23:21:21.211Z,4.63
2024-02-21T23:23:49.799Z,4.40
2024-02-21T23:26:18.382Z,4.43
2024-02-21T23:28:46.907Z,3.85
2024-02-21T23:31:15.449Z,4.57
2024-02-21T23:33:45.717Z,4.28
2024-02-21T23:36:14.935Z,4.00
2024-02-21T23:38:44.223Z,4.80
2024-02-21T23:41:12.836Z,5.20
2024-02-21T23:43:43.156Z,4.60
2024-02-21T23:46:12.252Z,4.20
2024-02-21T23:48:41.473Z,4.25
2024-02-21T23:51:11.522Z,4.45
2024-02-21T23:53:39.982Z,4.10
2024-02-21T23:56:11.865Z,3.95
2024-02-21T23:58:40.508Z,4.53
